Time;durP1;ratioP1;P1;durP2;ratioP2;P2;SDS_P1;SDS_P2;PMS_P1;PMS_P2;Temp;Humidity;BMP_temperature;BMP_pressure;BME280_temperature;BME280_humidity;BME280_pressure;Samples;Min_cycle;Max_cycle;Signal;HPM_P1;HPM_P2
2022/03/21 00:00:52;;;;;;;51.05;34.58;;;3.00;99.90;;;;;;5114232;28;20039;-64
2022/03/21 00:03:21;;;;;;;59.08;34.08;;;3.10;99.90;;;;;;5115549;28;20050;-64
2022/03/21 00:05:47;;;;;;;54.10;34.15;;;;;;;;;;5114641;27;20047;-64
2022/03/21 00:08:15;;;;;;;59.47;35.90;;;3.00;99.90;;;;;;5114238;28;20040;-64
2022/03/21 00:10:41;;;;;;;52.40;34.70;;;3.00;99.90;;;;;;5115174;28;20047;-64
2022/03/21 00:13:08;;;;;;;56.45;35.20;;;;;;;;;;5114302;28;20392;-64
2022/03/21 00:15:35;;;;;;;55.38;35.92;;;;;;;;;;5115552;28;20036;-64
2022/03/21 00:18:02;;;;;;;53.67;36.47;;;2.90;99.90;;;;;;5113907;28;20043;-64
2022/03/21 00:20:29;;;;;;;52.25;34.38;;;2.90;99.90;;;;;;5112690;28;20053;-64
2022/03/21 00:22:56;;;;;;;53.95;34.72;;;;;;;;;;5115181;28;20388;-64
2022/03/21 00:25:22;;;;;;;51.83;35.33;;;3.20;99.90;;;;;;5114725;28;20078;-64
2022/03/21 00:27:48;;;;;;;57.78;38.15;;;2.90;99.90;;;;;;5113086;28;20040;-64
2022/03/21 00:30:14;;;;;;;51.95;34.00;;;;;;;;;;5096907;28;20142;-64
2022/03/21 00:32:41;;;;;;;61.47;38.00;;;;;;;;;;5113873;28;20392;-64
2022/03/21 00:35:08;;;;;;;56.15;36.65;;;2.80;99.90;;;;;;5112846;28;20071;-64
2022/03/21 00:37:35;;;;;;;55.72;37.17;;;2.90;99.90;;;;;;5113582;28;20043;-64
2022/03/21 00:40:02;;;;;;;60.60;37.90;;;;;;;;;;5113547;28;20108;-64
2022/03/21 00:42:28;;;;;;;55.05;37.42;;;2.80;99.90;;;;;;5114204;28;20168;-64
2022/03/21 00:44:56;;;;;;;56.67;35.78;;;2.60;99.90;;;;;;5114473;28;20118;-64
2022/03/21 00:47:22;;;;;;;61.58;39.45;;;;;;;;;;5113016;28;20047;-64
2022/03/21 00:49:48;;;;;;;56.42;38.20;;;;;;;;;;5113988;28;20039;-64
2022/03/21 00:52:14;;;;;;;63.97;40.85;;;;;;;;;;5113371;28;20365;-64
2022/03/21 00:54:40;;;;;;;58.40;37.30;;;;;;;;;;5112306;28;20052;-64
2022/03/21 00:57:06;;;;;;;58.72;39.35;;;;;;;;;;5114590;28;20392;-64
2022/03/21 00:59:32;;;;;;;59.90;38.40;;;;;;;;;;5113412;28;20043;-64
2022/03/21 01:01:59;;;;;;;62.70;37.85;;;;;;;;;;5112204;28;20040;-64
2022/03/21 01:04:25;;;;;;;62.58;38.50;;;;;;;;;;5114144;28;20035;-64
2022/03/21 01:06:50;;;;;;;64.78;39.20;;;2.90;99.90;;;;;;5114043;28;20047;-64
2022/03/21 01:09:17;;;;;;;55.35;36.65;;;;;;;;;;5113487;28;20108;-64
2022/03/21 01:11:44;;;;;;;59.10;37.45;;;2.80;99.90;;;;;;5112804;28;20044;-64
2022/03/21 01:14:11;;;;;;;57.63;38.45;;;3.10;99.90;;;;;;5114025;28;20045;-63
2022/03/21 01:16:37;;;;;;;61.78;36.47;;;3.00;99.90;;;;;;5112189;28;20039;-64
2022/03/21 01:19:03;;;;;;;58.25;36.88;;;;;;;;;;5112560;28;20047;-64
2022/03/21 01:21:30;;;;;;;62.55;40.30;;;3.10;99.90;;;;;;5112459;28;20488;-63
2022/03/21 01:23:56;;;;;;;60.05;36.95;;;;;;;;;;5112890;28;20031;-64
2022/03/21 01:26:22;;;;;;;59.03;38.95;;;;;;;;;;5113846;28;20051;-64
2022/03/21 01:28:48;;;;;;;64.85;39.20;;;;;;;;;;5113639;28;20480;-64
2022/03/21 01:31:14;;;;;;;58.90;36.85;;;;;;;;;;5111107;28;20082;-63
2022/03/21 01:33:41;;;;;;;52.00;35.13;;;;;;;;;;5113562;28;20071;-64
2022/03/21 01:36:07;;;;;;;58.83;37.05;;;;;;;;;;5113694;28;20047;-64
2022/03/21 01:38:33;;;;;;;58.05;37.83;;;;;;;;;;5113048;28;20035;-64
2022/03/21 01:40:59;;;;;;;60.83;39.28;;;;;;;;;;5113704;28;20338;-64
2022/03/21 01:43:25;;;;;;;61.45;39.38;;;;;;;;;;5113093;28;20481;-64
2022/03/21 01:45:51;;;;;;;63.35;40.42;;;;;;;;;;5111856;28;20392;-64
2022/03/21 01:48:17;;;;;;;61.20;38.33;;;3.30;99.90;;;;;;5112314;28;20040;-64
2022/03/21 01:50:44;;;;;;;58.22;38.08;;;3.10;99.90;;;;;;5113093;28;20078;-64
2022/03/21 01:55:56;;;;;;;63.05;39.10;;;3.40;99.90;;;;;;5113217;28;20462;-64
2022/03/21 01:58:22;;;;;;;60.97;39.55;;;2.90;99.90;;;;;;5111190;28;20081;-64
2022/03/21 02:00:48;;;;;;;63.33;38.17;;;;;;;;;;5111973;28;20040;-64
2022/03/21 02:03:14;;;;;;;68.65;41.05;;;;;;;;;;5112111;28;20039;-64
2022/03/21 02:05:40;;;;;;;58.63;38.97;;;3.20;99.90;;;;;;5111039;28;20044;-64
2022/03/21 02:08:06;;;;;;;54.88;36.63;;;2.80;99.90;;;;;;5113168;28;20479;-63
2022/03/21 02:10:32;;;;;;;58.28;38.53;;;3.00;99.90;;;;;;5111796;28;20039;-63
2022/03/21 02:12:58;;;;;;;59.15;38.38;;;2.80;99.90;;;;;;5112127;28;20458;-64
2022/03/21 02:15:25;;;;;;;56.58;38.60;;;3.20;99.90;;;;;;5111800;28;20047;-64
2022/03/21 02:17:59;;;;;;;53.30;35.45;;;3.00;99.90;;;;;;5112964;28;20070;-63
2022/03/21 02:20:28;;;;;;;65.03;39.97;;;2.90;99.90;;;;;;5093760;28;20127;-63
2022/03/21 02:23:08;;;;;;;61.38;38.75;;;2.80;99.90;;;;;;5112743;28;20031;-63
2022/03/21 02:25:34;;;;;;;54.97;37.10;;;;;;;;;;5112896;28;20070;-64
2022/03/21 02:28:06;;;;;;;61.70;38.15;;;3.00;99.90;;;;;;5112031;28;20108;-64
2022/03/21 02:30:36;;;;;;;58.75;36.42;;;2.80;99.90;;;;;;5113023;28;20054;-64
2022/03/21 02:33:03;;;;;;;58.80;37.35;;;2.90;99.90;;;;;;5110828;28;20036;-64
2022/03/21 02:35:30;;;;;;;56.58;36.53;;;2.60;99.90;;;;;;5111318;28;20144;-64
2022/03/21 02:37:57;;;;;;;59.53;38.78;;;3.10;99.90;;;;;;5112450;28;20036;-64
2022/03/21 02:40:24;;;;;;;57.70;37.30;;;3.20;99.90;;;;;;5111652;28;20372;-63
2022/03/21 02:42:50;;;;;;;61.53;39.55;;;2.70;99.90;;;;;;5111580;28;20096;-64
2022/03/21 02:45:16;;;;;;;58.25;36.15;;;;;;;;;;5112487;28;20071;-64
2022/03/21 02:47:42;;;;;;;54.80;37.80;;;2.80;99.90;;;;;;5111878;28;20130;-64
2022/03/21 02:50:11;;;;;;;61.38;38.08;;;3.40;99.90;;;;;;5111388;28;20118;-64
2022/03/21 02:52:39;;;;;;;58.30;37.28;;;3.00;99.90;;;;;;5111263;28;20051;-64
2022/03/21 02:55:05;;;;;;;63.95;39.83;;;3.00;99.90;;;;;;5110559;28;20100;-64
2022/03/21 02:57:32;;;;;;;53.60;34.45;;;2.80;99.90;;;;;;5112459;28;20051;-64
2022/03/21 02:59:59;;;;;;;51.58;33.45;;;;;;;;;;5111374;28;20392;-64
2022/03/21 03:02:25;;;;;;;53.20;34.67;;;2.90;99.90;;;;;;5093237;28;20043;-64
2022/03/21 03:04:52;;;;;;;53.92;34.63;;;2.90;99.90;;;;;;5111269;28;20479;-64
2022/03/21 03:07:18;;;;;;;54.88;34.63;;;2.70;99.90;;;;;;5111284;28;20048;-64
2022/03/21 03:09:43;;;;;;;52.45;33.08;;;3.10;99.90;;;;;;5111443;28;20046;-64
2022/03/21 03:12:09;;;;;;;49.78;32.45;;;2.50;99.90;;;;;;5112232;28;20046;-64
2022/03/21 03:14:35;;;;;;;58.75;37.28;;;2.90;99.90;;;;;;5111253;28;20043;-64
2022/03/21 03:17:04;;;;;;;60.08;37.97;;;2.60;99.90;;;;;;5111742;28;20036;-64
2022/03/21 03:19:29;;;;;;;60.53;38.55;;;2.60;99.90;;;;;;5112215;28;20039;-64
2022/03/21 03:21:56;;;;;;;57.50;37.15;;;2.50;99.90;;;;;;5111892;28;20039;-64
2022/03/21 03:24:25;;;;;;;59.38;37.88;;;2.60;99.90;;;;;;5111495;28;20115;-64
2022/03/21 03:26:50;;;;;;;66.20;40.00;;;2.30;99.90;;;;;;5112434;28;20123;-64
2022/03/21 03:29:16;;;;;;;61.90;39.58;;;;;;;;;;5110567;28;20123;-64
2022/03/21 03:31:43;;;;;;;62.70;39.35;;;2.70;99.90;;;;;;5112207;28;20044;-64
2022/03/21 03:34:09;;;;;;;59.58;38.92;;;2.60;99.90;;;;;;5111083;28;20047;-64
2022/03/21 03:36:36;;;;;;;65.10;39.80;;;;;;;;;;5110434;28;20401;-64
2022/03/21 03:39:02;;;;;;;62.22;40.05;;;2.60;99.90;;;;;;5111878;28;20540;-64
2022/03/21 03:41:28;;;;;;;63.33;40.45;;;2.60;99.90;;;;;;5111989;28;20050;-64
2022/03/21 03:44:03;;;;;;;67.13;41.53;;;2.60;99.90;;;;;;5110213;28;20032;-64
2022/03/21 03:46:29;;;;;;;62.30;38.83;;;2.80;99.90;;;;;;5110782;28;20043;-64
2022/03/21 03:48:55;;;;;;;70.35;40.35;;;2.60;99.90;;;;;;5110863;28;20388;-64
2022/03/21 03:51:21;;;;;;;59.67;38.80;;;;;;;;;;5109748;28;20047;-64
2022/03/21 03:53:47;;;;;;;65.40;41.58;;;;;;;;;;5112280;28;20087;-64
2022/03/21 03:56:13;;;;;;;66.70;42.92;;;;;;;;;;5114094;28;20052;-64
2022/03/21 03:58:39;;;;;;;70.13;42.83;;;2.40;99.90;;;;;;5113926;28;20114;-64
2022/03/21 04:01:06;;;;;;;64.35;39.08;;;2.50;99.90;;;;;;5115709;28;20048;-64
2022/03/21 04:03:47;;;;;;;61.88;40.78;;;2.30;99.90;;;;;;5115255;27;20036;-64
2022/03/21 04:06:15;;;;;;;55.25;38.40;;;2.20;99.90;;;;;;5113621;28;20039;-64
2022/03/21 04:08:41;;;;;;;71.75;44.88;;;2.80;99.90;;;;;;5114334;28;20114;-64
2022/03/21 04:11:07;;;;;;;68.68;43.60;;;2.80;99.90;;;;;;5114125;28;20051;-64
2022/03/21 04:13:34;;;;;;;66.75;42.40;;;;;;;;;;5113917;28;20055;-64
2022/03/21 04:15:59;;;;;;;65.43;42.17;;;2.50;99.90;;;;;;5114957;28;20559;-63
2022/03/21 04:18:26;;;;;;;67.93;42.08;;;2.60;99.90;;;;;;5113784;28;20091;-64
2022/03/21 04:20:54;;;;;;;61.63;39.28;;;2.40;99.90;;;;;;5113628;28;20047;-64
2022/03/21 04:23:20;;;;;;;61.45;39.67;;;3.30;99.90;;;;;;5115084;28;20098;-64
2022/03/21 04:25:47;;;;;;;54.30;36.70;;;2.20;99.90;;;;;;5112949;28;20407;-64
2022/03/21 04:28:16;;;;;;;59.80;37.60;;;2.40;99.90;;;;;;5115244;28;20440;-64
2022/03/21 04:30:43;;;;;;;64.20;40.00;;;2.10;99.90;;;;;;5113720;28;20554;-64
2022/03/21 04:33:10;;;;;;;61.30;37.90;;;2.50;99.90;;;;;;5113877;28;20039;-64
2022/03/21 04:35:37;;;;;;;61.38;36.42;;;2.60;99.90;;;;;;5115251;28;20039;-63
2022/03/21 04:38:03;;;;;;;61.33;39.33;;;2.60;99.90;;;;;;5113360;28;20388;-64
2022/03/21 04:40:29;;;;;;;70.05;43.72;;;2.60;99.90;;;;;;5114028;28;20039;-64
2022/03/21 04:42:55;;;;;;;73.03;44.83;;;2.20;99.90;;;;;;5114735;28;20136;-64
2022/03/21 04:45:21;;;;;;;68.53;43.30;;;2.50;99.90;;;;;;5114670;28;20073;-63
2022/03/21 04:47:46;;;;;;;57.20;36.95;;;2.60;99.90;;;;;;5112350;28;20035;-64
2022/03/21 04:50:13;;;;;;;56.25;34.85;;;2.40;99.90;;;;;;5113219;28;20132;-64
2022/03/21 04:52:39;;;;;;;57.08;37.55;;;2.50;99.90;;;;;;5113319;28;20043;-63
2022/03/21 04:55:07;;;;;;;56.30;34.30;;;2.30;99.90;;;;;;5109584;28;20058;-64
2022/03/21 04:57:34;;;;;;;48.55;34.05;;;2.40;99.90;;;;;;5114612;28;20491;-64
2022/03/21 05:00:00;;;;;;;64.95;42.45;;;2.70;99.90;;;;;;5112997;28;20047;-64
2022/03/21 05:02:26;;;;;;;75.68;43.78;;;2.40;99.90;;;;;;5113811;27;20859;-64
2022/03/21 05:04:51;;;;;;;71.72;42.83;;;2.00;99.90;;;;;;5114154;28;20114;-64
2022/03/21 05:07:17;;;;;;;63.53;41.33;;;2.30;99.90;;;;;;5112053;28;20093;-64
2022/03/21 05:09:47;;;;;;;68.75;43.33;;;2.10;99.90;;;;;;5113714;28;20045;-64
2022/03/21 05:12:13;;;;;;;62.60;41.20;;;2.70;99.90;;;;;;5112864;28;20491;-64
2022/03/21 05:14:40;;;;;;;62.53;40.92;;;;;;;;;;5113773;28;20049;-64
2022/03/21 05:17:09;;;;;;;61.15;40.40;;;2.30;99.90;;;;;;5112445;28;20092;-64
2022/03/21 05:19:36;;;;;;;65.15;39.58;;;2.50;99.90;;;;;;5114472;28;20036;-64
2022/03/21 05:22:04;;;;;;;64.22;37.85;;;2.10;99.90;;;;;;5111903;28;20088;-64
2022/03/21 05:32:42;;;;;;;57.35;35.67;;;2.70;99.90;;;;;;5113518;28;20047;-64
2022/03/21 05:37:53;;;;;;;58.10;36.10;;;2.50;99.90;;;;;;5113218;28;20050;-64
2022/03/21 05:40:41;;;;;;;58.42;36.42;;;2.40;99.90;;;;;;5113764;28;20395;-64
2022/03/21 05:43:07;;;;;;;63.75;40.35;;;;;;;;;;5112801;28;20040;-64
2022/03/21 05:45:32;;;;;;;58.83;36.80;;;2.40;99.90;;;;;;5113522;28;20043;-64
2022/03/21 05:50:43;;;;;;;66.78;35.47;;;2.20;99.90;;;;;;5112723;28;20043;-64
2022/03/21 05:53:09;;;;;;;58.33;35.90;;;2.60;99.90;;;;;;5113076;28;20044;-64
2022/03/21 05:55:35;;;;;;;56.35;35.47;;;2.60;99.90;;;;;;5113885;28;20042;-64
2022/03/21 05:58:01;;;;;;;53.53;34.15;;;2.70;99.90;;;;;;5112450;28;20039;-64
2022/03/21 06:00:28;;;;;;;55.13;34.80;;;2.50;99.90;;;;;;5111974;28;20046;-64
2022/03/21 06:02:54;;;;;;;50.88;32.58;;;2.50;99.90;;;;;;5113083;27;20039;-64
2022/03/21 06:05:21;;;;;;;59.40;36.53;;;2.50;99.90;;;;;;5111458;28;20060;-64
2022/03/21 06:07:49;;;;;;;51.60;33.00;;;2.30;99.90;;;;;;5113005;28;20499;-64
2022/03/21 06:10:15;;;;;;;50.38;32.85;;;2.50;99.90;;;;;;5111578;28;20118;-64
2022/03/21 06:12:42;;;;;;;47.40;31.63;;;2.20;99.90;;;;;;5112275;28;20038;-64
2022/03/21 06:15:09;;;;;;;41.67;27.33;;;2.80;99.90;;;;;;5112569;28;20503;-64
2022/03/21 06:17:42;;;;;;;45.22;28.20;;;2.50;99.90;;;;;;5111395;28;20056;-64
2022/03/21 06:20:13;;;;;;;42.28;27.65;;;3.10;99.90;;;;;;5112588;28;20380;-64
2022/03/21 06:22:39;;;;;;;48.05;29.02;;;3.50;99.90;;;;;;5111802;28;20047;-64
2022/03/21 06:25:07;;;;;;;51.88;32.17;;;2.50;99.90;;;;;;5112873;28;20396;-64
2022/03/21 06:27:40;;;;;;;40.22;25.95;;;2.70;99.90;;;;;;5113014;28;20043;-64
2022/03/21 06:30:09;;;;;;;53.80;33.58;;;2.60;99.90;;;;;;5112979;28;20455;-64
2022/03/21 06:32:36;;;;;;;43.08;28.55;;;2.50;99.90;;;;;;5112525;28;20389;-64
2022/03/21 06:35:03;;;;;;;54.38;31.52;;;2.50;99.90;;;;;;5111749;28;20117;-64
2022/03/21 06:37:30;;;;;;;48.28;31.38;;;2.60;99.90;;;;;;5112657;28;20043;-64
2022/03/21 06:39:55;;;;;;;43.72;28.77;;;3.00;99.90;;;;;;5111726;28;20514;-64
2022/03/21 06:42:21;;;;;;;45.50;28.75;;;3.00;99.90;;;;;;5112374;28;20027;-63
2022/03/21 06:44:50;;;;;;;47.67;30.60;;;2.50;99.90;;;;;;5111513;28;20059;-63
2022/03/21 06:47:17;;;;;;;45.58;30.17;;;3.10;99.90;;;;;;5107996;28;20047;-64
2022/03/21 06:49:43;;;;;;;48.85;29.83;;;3.20;99.90;;;;;;5102113;28;20400;-64
2022/03/21 06:52:09;;;;;;;55.67;35.13;;;3.00;99.90;;;;;;5099490;28;20118;-64
2022/03/21 06:54:36;;;;;;;49.45;32.55;;;3.00;99.90;;;;;;5090652;28;20062;-65
2022/03/21 06:57:02;;;;;;;50.95;32.15;;;3.20;99.90;;;;;;5090975;28;20044;-64
2022/03/21 06:59:29;;;;;;;49.50;31.08;;;;;;;;;;5091864;28;20069;-64
2022/03/21 07:01:56;;;;;;;52.75;31.45;;;3.20;99.90;;;;;;5096788;28;20036;-64
2022/03/21 07:04:23;;;;;;;50.13;30.63;;;;;;;;;;5091545;28;20063;-64
2022/03/21 07:06:49;;;;;;;50.50;30.75;;;3.60;99.90;;;;;;5108087;28;20040;-64
2022/03/21 07:09:15;;;;;;;53.17;31.52;;;3.80;99.90;;;;;;5099812;28;20048;-64
2022/03/21 07:11:41;;;;;;;46.47;31.23;;;;;;;;;;5097181;28;20096;-64
2022/03/21 07:14:07;;;;;;;43.97;28.17;;;;;;;;;;5095089;28;20048;-64
2022/03/21 07:16:33;;;;;;;48.45;31.63;;;;;;;;;;5102273;28;20047;-64
2022/03/21 07:18:59;;;;;;;43.83;28.50;;;3.50;99.90;;;;;;5104274;28;20044;-65
2022/03/21 07:21:25;;;;;;;45.55;28.58;;;;;;;;;;5102622;28;20165;-64
2022/03/21 07:23:51;;;;;;;46.50;27.75;;;;;;;;;;5108139;28;20059;-64
2022/03/21 07:26:17;;;;;;;45.65;30.02;;;;;;;;;;5108661;28;20043;-64
2022/03/21 07:28:43;;;;;;;49.53;30.88;;;;;;;;;;5109641;28;20051;-64
2022/03/21 07:31:09;;;;;;;45.38;29.05;;;;;;;;;;5112625;28;20043;-64
2022/03/21 07:33:39;;;;;;;43.78;27.63;;;4.00;99.90;;;;;;5095733;28;20100;-64
2022/03/21 07:36:06;;;;;;;46.78;28.77;;;4.60;99.90;;;;;;5093797;28;20036;-65
2022/03/21 07:38:32;;;;;;;41.58;28.38;;;;;;;;;;5096357;28;20039;-64
2022/03/21 07:40:59;;;;;;;41.72;27.42;;;;;;;;;;5111862;28;20039;-65
2022/03/21 07:43:25;;;;;;;41.33;28.60;;;;;;;;;;5100353;28;20046;-65
2022/03/21 07:48:36;;;;;;;42.67;28.65;;;4.80;99.90;;;;;;5099711;28;20051;-65
2022/03/21 07:51:05;;;;;;;47.75;30.85;;;;;;;;;;5110696;28;20044;-65
2022/03/21 07:53:31;;;;;;;44.05;28.63;;;4.90;99.90;;;;;;5102715;28;20066;-65
2022/03/21 07:55:59;;;;;;;48.95;28.30;;;;;;;;;;5110590;28;20043;-64
2022/03/21 07:58:26;;;;;;;44.08;28.70;;;5.10;99.90;;;;;;5112431;28;20119;-64
2022/03/21 08:00:52;;;;;;;46.65;28.42;;;;;;;;;;5113126;28;20085;-64
2022/03/21 08:03:18;;;;;;;51.45;30.60;;;5.60;99.90;;;;;;5098709;28;20043;-64
2022/03/21 08:05:44;;;;;;;41.58;27.50;;;5.30;99.90;;;;;;5092912;28;20114;-65
2022/03/21 08:08:09;;;;;;;42.00;26.58;;;5.80;99.90;;;;;;5110502;28;20047;-65
2022/03/21 08:10:35;;;;;;;41.90;26.42;;;5.50;99.90;;;;;;5103513;28;20118;-65
2022/03/21 08:13:01;;;;;;;43.47;28.25;;;;;;;;;;5108336;28;20145;-65
2022/03/21 08:15:27;;;;;;;42.28;27.75;;;;;;;;;;5104259;28;20134;-65
2022/03/21 08:17:58;;;;;;;39.70;25.48;;;;;;;;;;5105158;28;20089;-64
2022/03/21 08:20:26;;;;;;;38.05;23.88;;;;;;;;;;5111002;28;20075;-64
2022/03/21 08:22:52;;;;;;;39.22;25.15;;;;;;;;;;5104212;28;20051;-65
2022/03/21 08:25:20;;;;;;;38.03;26.20;;;;;;;;;;5109694;28;20108;-65
2022/03/21 08:27:47;;;;;;;38.22;24.40;;;;;;;;;;5111153;28;20691;-65
2022/03/21 08:30:15;;;;;;;35.20;23.83;;;6.80;99.90;;;;;;5100955;28;20075;-64
2022/03/21 08:32:45;;;;;;;41.10;26.73;;;;;;;;;;5110857;28;20043;-64
2022/03/21 08:35:12;;;;;;;40.85;24.77;;;;;;;;;;5104429;28;20050;-64
2022/03/21 08:37:38;;;;;;;34.42;21.83;;;;;;;;;;5101399;28;20119;-64
2022/03/21 08:40:04;;;;;;;37.70;23.58;;;7.20;99.90;;;;;;5108843;28;20027;-64
2022/03/21 08:42:30;;;;;;;34.88;21.80;;;7.00;99.90;;;;;;5111280;28;20424;-65
2022/03/21 08:44:56;;;;;;;36.17;23.27;;;7.20;99.90;;;;;;5106304;28;20046;-65
2022/03/21 08:47:22;;;;;;;37.00;21.33;;;7.50;99.90;;;;;;5109520;28;20039;-65
2022/03/21 08:49:48;;;;;;;35.80;22.02;;;7.50;99.90;;;;;;5112427;28;20388;-65
2022/03/21 08:52:13;;;;;;;34.47;21.73;;;8.00;99.90;;;;;;5100372;28;20051;-66
2022/03/21 08:54:42;;;;;;;30.85;20.73;;;8.00;99.90;;;;;;5097558;28;20147;-65
2022/03/21 08:57:10;;;;;;;33.17;21.02;;;;;;;;;;5110864;28;20051;-66
2022/03/21 08:59:36;;;;;;;30.17;19.45;;;8.30;99.90;;;;;;5110712;28;20083;-66
2022/03/21 09:02:02;;;;;;;29.70;17.52;;;;;;;;;;5105402;28;20071;-65
2022/03/21 09:04:28;;;;;;;28.83;18.77;;;8.10;99.90;;;;;;5091781;28;20048;-65
2022/03/21 09:06:54;;;;;;;32.53;19.42;;;;;;;;;;5072963;28;20056;-65
2022/03/21 09:09:21;;;;;;;31.85;19.35;;;8.60;99.90;;;;;;5094198;28;20483;-65
2022/03/21 09:11:47;;;;;;;33.10;19.35;;;;;;;;;;5090316;28;20142;-65
2022/03/21 09:14:14;;;;;;;36.03;19.83;;;9.00;99.90;;;;;;5106270;28;20046;-65
2022/03/21 09:16:42;;;;;;;30.98;18.45;;;9.00;99.90;;;;;;5108954;28;20048;-65
2022/03/21 09:19:08;;;;;;;28.20;18.45;;;8.90;99.90;;;;;;5110783;28;20035;-65
2022/03/21 09:21:35;;;;;;;32.33;20.08;;;9.10;99.90;;;;;;5108117;28;20079;-65
2022/03/21 09:24:02;;;;;;;31.55;17.70;;;;;;;;;;5101407;28;20043;-65
2022/03/21 09:26:27;;;;;;;34.40;18.15;;;;;;;;;;5089750;28;20082;-65
2022/03/21 09:29:00;;;;;;;29.92;17.70;;;9.10;99.90;;;;;;5091671;28;20067;-65
2022/03/21 09:31:29;;;;;;;29.48;18.75;;;9.30;99.90;;;;;;5093763;28;20082;-63
2022/03/21 09:33:55;;;;;;;34.60;18.65;;;9.40;99.90;;;;;;5099340;28;20044;-65
2022/03/21 09:36:21;;;;;;;30.63;19.10;;;;;;;;;;5092820;28;20081;-65
2022/03/21 09:38:47;;;;;;;30.90;17.30;;;;;;;;;;5093440;28;20519;-64
2022/03/21 09:41:14;;;;;;;32.85;19.58;;;;;;;;;;5091770;28;20044;-64
2022/03/21 09:43:40;;;;;;;26.15;17.38;;;;;;;;;;5092932;28;20044;-65
2022/03/21 09:46:07;;;;;;;26.17;16.65;;;;;;;;;;5092533;28;20040;-65
2022/03/21 09:48:34;;;;;;;26.98;18.13;;;;;;;;;;5104278;28;20093;-65
2022/03/21 09:51:01;;;;;;;33.00;17.58;;;;;;;;;;5112852;28;20044;-65
2022/03/21 09:53:28;;;;;;;27.90;17.13;;;;;;;;;;5112554;28;20135;-65
2022/03/21 09:55:55;;;;;;;24.88;14.70;;;;;;;;;;5080749;28;20040;-65
2022/03/21 09:58:21;;;;;;;27.55;17.05;;;;;;;;;;5092336;28;20362;-65
2022/03/21 10:00:49;;;;;;;25.45;15.70;;;;;;;;;;5093019;28;20036;-65
2022/03/21 10:03:16;;;;;;;27.80;17.23;;;10.40;99.90;;;;;;5106915;28;20515;-65
2022/03/21 10:05:46;;;;;;;29.25;15.75;;;11.30;99.90;;;;;;5111808;28;20046;-65
2022/03/21 10:08:20;;;;;;;26.58;17.00;;;10.90;99.90;;;;;;5110167;28;20040;-66
2022/03/21 10:11:02;;;;;;;24.83;16.20;;;10.60;99.90;;;;;;5111206;28;20043;-66
2022/03/21 10:13:37;;;;;;;25.30;16.10;;;10.60;99.90;;;;;;5094778;28;20122;-65
2022/03/21 10:16:18;;;;;;;23.95;14.93;;;10.60;99.90;;;;;;5112823;28;20048;-66
2022/03/21 10:18:52;;;;;;;28.35;15.77;;;10.90;99.90;;;;;;5109971;28;20043;-65
2022/03/21 10:21:19;;;;;;;21.55;14.48;;;10.90;99.90;;;;;;5093557;28;20682;-66
2022/03/21 10:24:06;;;;;;;22.55;14.75;;;10.80;99.90;;;;;;5090994;28;20507;-66
2022/03/21 10:26:36;;;;;;;22.67;14.95;;;;;;;;;;5092207;28;20119;-68
2022/03/21 10:29:06;;;;;;;23.80;14.15;;;;;;;;;;5093548;28;20051;-65
2022/03/21 10:31:36;;;;;;;23.40;15.20;;;;;;;;;;5092469;28;20085;-65
2022/03/21 10:34:03;;;;;;;21.17;13.82;;;;;;;;;;5090975;28;20501;-64
2022/03/21 10:36:29;;;;;;;21.15;13.55;;;;;;;;;;5097911;28;20067;-68
2022/03/21 10:39:08;;;;;;;21.77;14.90;;;;;;;;;;5100671;28;20047;-79
2022/03/21 10:41:35;;;;;;;21.02;14.32;;;;;;;;;;5097622;28;20482;-66
2022/03/21 10:44:02;;;;;;;21.55;13.52;;;;;;;;;;5110748;28;20103;-70
2022/03/21 10:46:31;;;;;;;19.17;12.90;;;;;;;;;;5111175;28;20122;-73
2022/03/21 10:49:08;;;;;;;20.05;13.30;;;;;;;;;;5102976;28;20403;-70
2022/03/21 10:51:54;;;;;;;21.00;13.18;;;;;;;;;;5097318;28;20046;-69
2022/03/21 10:54:38;;;;;;;21.02;13.27;;;;;;;;;;5109260;28;20063;-69
2022/03/21 10:57:05;;;;;;;21.45;13.27;;;;;;;;;;5077431;28;20131;-69
2022/03/21 10:59:34;;;;;;;18.02;11.95;;;;;;;;;;5090113;28;20040;-69
2022/03/21 11:02:12;;;;;;;20.65;13.02;;;;;;;;;;5088552;28;20527;-69
2022/03/21 11:04:41;;;;;;;22.98;13.45;;;12.30;99.90;;;;;;5092809;28;20035;-69
2022/03/21 11:07:11;;;;;;;20.88;12.10;;;;;;;;;;5097286;28;20456;-69
2022/03/21 11:09:37;;;;;;;19.35;13.50;;;;;;;;;;5092609;28;20044;-69
2022/03/21 11:12:04;;;;;;;18.65;12.73;;;12.00;99.90;;;;;;5093108;28;20046;-69
2022/03/21 11:14:31;;;;;;;17.25;10.48;;;12.20;97.10;;;;;;5092385;28;20074;-69
2022/03/21 11:16:56;;;;;;;15.43;9.40;;;12.20;99.90;;;;;;5093781;28;20052;-69
2022/03/21 11:19:24;;;;;;;18.85;10.52;;;12.30;96.70;;;;;;5092689;28;20148;-71
2022/03/21 11:21:50;;;;;;;21.02;10.32;;;;;;;;;;5108112;28;20036;-69
2022/03/21 11:24:16;;;;;;;17.42;11.75;;;;;;;;;;5108329;28;20178;-71
2022/03/21 11:26:59;;;;;;;18.67;11.90;;;12.50;91.30;;;;;;5102575;28;20061;-71
2022/03/21 11:30:01;;;;;;;18.15;11.60;;;12.50;99.90;;;;;;5098080;28;20028;-71
2022/03/21 11:32:46;;;;;;;18.55;11.88;;;12.70;99.90;;;;;;5101493;28;20079;-71
2022/03/21 11:35:17;;;;;;;20.80;11.38;;;12.50;99.90;;;;;;5098621;28;20405;-70
2022/03/21 11:37:43;;;;;;;19.23;11.70;;;12.60;99.90;;;;;;5096222;28;20372;-70
2022/03/21 11:40:30;;;;;;;16.98;10.02;;;12.70;97.20;;;;;;5095709;28;20032;-66
2022/03/21 11:43:19;;;;;;;19.65;11.27;;;12.80;99.50;;;;;;5115386;28;20032;-70
2022/03/21 11:45:58;;;;;;;19.30;10.70;;;12.80;95.80;;;;;;5109177;28;20035;-68
2022/03/21 11:48:24;;;;;;;20.55;12.75;;;;;;;;;;5108527;28;20080;-72
2022/03/21 11:51:11;;;;;;;17.65;10.73;;;12.90;97.10;;;;;;5096071;28;20075;-67
2022/03/21 11:53:44;;;;;;;16.75;10.38;;;13.10;99.90;;;;;;5095174;28;20067;-70
2022/03/21 11:56:15;;;;;;;16.77;11.45;;;13.10;99.90;;;;;;5093697;28;20047;-70
2022/03/21 11:58:41;;;;;;;16.98;11.18;;;;;;;;;;5093857;28;20059;-70
2022/03/21 12:01:16;;;;;;;18.27;11.48;;;13.10;93.60;;;;;;5094793;28;20044;-70
2022/03/21 12:03:43;;;;;;;17.50;11.15;;;;;;;;;;5093254;28;20053;-70
2022/03/21 12:06:31;;;;;;;17.58;10.15;;;13.20;91.30;;;;;;5094105;28;20400;-69
2022/03/21 12:09:11;;;;;;;16.98;10.68;;;13.20;99.90;;;;;;5094631;28;20503;-70
2022/03/21 12:11:37;;;;;;;14.85;9.90;;;13.40;93.00;;;;;;5094933;28;20060;-70
2022/03/21 12:14:36;;;;;;;20.42;11.18;;;13.70;99.90;;;;;;5093883;28;20361;-70
2022/03/21 12:17:02;;;;;;;18.50;11.13;;;13.20;99.90;;;;;;5092775;28;20402;-70
2022/03/21 12:19:48;;;;;;;18.52;11.02;;;14.20;92.00;;;;;;5093665;28;20043;-70
2022/03/21 12:22:29;;;;;;;16.70;10.80;;;13.70;99.90;;;;;;5093589;28;20370;-69
2022/03/21 12:25:13;;;;;;;17.20;11.18;;;13.30;99.90;;;;;;5092832;28;20472;-69
2022/03/21 12:27:39;;;;;;;18.50;11.23;;;;;;;;;;5094892;28;20082;-70
2022/03/21 12:30:31;;;;;;;17.52;11.85;;;13.40;99.90;;;;;;5093324;28;20040;-70
2022/03/21 12:33:15;;;;;;;15.73;10.25;;;14.30;99.90;;;;;;5087904;28;20048;-69
2022/03/21 12:35:45;;;;;;;16.07;10.70;;;;;;;;;;5094440;28;20489;-69
2022/03/21 12:38:27;;;;;;;15.75;10.45;;;13.90;99.90;;;;;;5092611;28;20314;-69
2022/03/21 12:40:55;;;;;;;18.42;11.38;;;;;;;;;;5094596;28;20042;-69
2022/03/21 12:43:21;;;;;;;21.15;12.25;;;;;;;;;;5093204;28;20196;-69
2022/03/21 12:45:49;;;;;;;19.65;11.63;;;;;;;;;;5096035;28;20090;-66
2022/03/21 12:48:17;;;;;;;17.50;11.35;;;;;;;;;;5099707;28;20044;-66
2022/03/21 12:50:43;;;;;;;19.42;11.32;;;;;;;;;;5114652;28;20043;-65
2022/03/21 12:53:10;;;;;;;18.08;11.43;;;;;;;;;;5107075;28;20044;-66
2022/03/21 12:55:38;;;;;;;17.17;11.07;;;;;;;;;;5094850;28;20048;-66
2022/03/21 12:58:05;;;;;;;17.25;11.70;;;;;;;;;;5092634;28;20052;-66
2022/03/21 13:00:34;;;;;;;19.63;11.95;;;;;;;;;;5092048;28;20043;-66
2022/03/21 13:03:10;;;;;;;19.30;11.57;;;;;;;;;;5094024;28;20510;-66
2022/03/21 13:11:45;;;;;;;20.20;12.02;;;14.20;72.10;;;;;;5114043;28;20122;-66
2022/03/21 13:14:14;;;;;;;17.50;11.60;;;14.20;82.80;;;;;;5114196;28;20071;-66
2022/03/21 13:16:51;;;;;;;17.58;11.50;;;14.30;79.60;;;;;;5112330;28;20289;-66
2022/03/21 13:19:28;;;;;;;19.35;11.65;;;14.40;82.90;;;;;;5103624;28;20036;-66
2022/03/21 13:21:55;;;;;;;17.30;11.23;;;14.40;82.20;;;;;;5093193;28;20116;-65
2022/03/21 13:24:42;;;;;;;19.70;10.60;;;14.50;79.90;;;;;;5108472;28;20047;-66
2022/03/21 13:27:09;;;;;;;20.92;12.32;;;14.40;76.10;;;;;;5091861;28;20040;-66
2022/03/21 13:29:40;;;;;;;18.35;11.45;;;14.30;99.90;;;;;;5075717;28;20503;-66
2022/03/21 13:32:06;;;;;;;20.52;12.13;;;;;;;;;;5099892;28;20050;-64
2022/03/21 13:34:37;;;;;;;19.98;13.13;;;14.50;73.50;;;;;;5098601;28;20485;-68
2022/03/21 13:37:13;;;;;;;16.65;10.32;;;14.30;96.80;;;;;;5092060;28;20130;-68
2022/03/21 13:39:39;;;;;;;19.10;11.05;;;;;;;;;;5093477;28;20082;-67
2022/03/21 13:42:07;;;;;;;16.80;11.93;;;;;;;;;;5091761;28;20040;-68